sensor_id;sensor_type;location;lat;lon;timestamp;P1;durP1;ratioP1;P2;durP2;ratioP2
77798;SDS011;66989;50.426;15.352;2024-02-23T00:01:20;3.25;;;1.98;;
77798;SDS011;66989;50.426;15.352;2024-02-23T00:03:45;4.60;;;2.07;;
77798;SDS011;66989;50.426;15.352;2024-02-23T00:06:11;3.53;;;1.65;;
77798;SDS011;66989;50.426;15.352;2024-02-23T00:08:37;5.70;;;3.17;;
77798;SDS011;66989;50.426;15.352;2024-02-23T00:11:03;4.65;;;2.17;;
77798;SDS011;66989;50.426;15.352;2024-02-23T00:13:28;2.83;;;1.63;;
77798;SDS011;66989;50.426;15.352;2024-02-23T00:15:54;3.20;;;1.63;;
77798;SDS011;66989;50.426;15.352;2024-02-23T00:18:19;4.68;;;2.40;;
77798;SDS011;66989;50.426;15.352;2024-02-23T00:20:46;2.90;;;1.67;;
77798;SDS011;66989;50.426;15.352;2024-02-23T00:23:11;4.05;;;1.90;;
77798;SDS011;66989;50.426;15.352;2024-02-23T00:25:37;3.70;;;1.45;;
77798;SDS011;66989;50.426;15.352;2024-02-23T00:28:03;4.95;;;2.30;;
77798;SDS011;66989;50.426;15.352;2024-02-23T00:30:29;5.88;;;2.30;;
77798;SDS011;66989;50.426;15.352;2024-02-23T00:32:55;3.78;;;2.17;;
77798;SDS011;66989;50.426;15.352;2024-02-23T00:35:20;3.85;;;1.42;;
77798;SDS011;66989;50.426;15.352;2024-02-23T00:37:46;4.80;;;1.63;;
77798;SDS011;66989;50.426;15.352;2024-02-23T00:40:11;5.15;;;1.85;;
77798;SDS011;66989;50.426;15.352;2024-02-23T00:42:37;2.35;;;1.25;;
77798;SDS011;66989;50.426;15.352;2024-02-23T00:45:02;2.60;;;1.23;;
77798;SDS011;66989;50.426;15.352;2024-02-23T00:47:28;2.20;;;1.15;;
77798;SDS011;66989;50.426;15.352;2024-02-23T00:49:54;2.85;;;1.27;;
77798;SDS011;66989;50.426;15.352;2024-02-23T00:52:19;2.20;;;1.00;;
77798;SDS011;66989;50.426;15.352;2024-02-23T00:54:44;3.60;;;1.85;;
77798;SDS011;66989;50.426;15.352;2024-02-23T00:57:10;2.58;;;1.00;;
77798;SDS011;66989;50.426;15.352;2024-02-23T00:59:36;4.32;;;1.65;;
77798;SDS011;66989;50.426;15.352;2024-02-23T01:02:01;1.40;;;0.82;;
77798;SDS011;66989;50.426;15.352;2024-02-23T01:04:26;3.10;;;1.27;;
77798;SDS011;66989;50.426;15.352;2024-02-23T01:06:52;2.22;;;1.20;;
77798;SDS011;66989;50.426;15.352;2024-02-23T01:09:17;2.03;;;1.08;;
77798;SDS011;66989;50.426;15.352;2024-02-23T01:11:46;2.13;;;1.23;;
77798;SDS011;66989;50.426;15.352;2024-02-23T01:14:11;2.13;;;1.13;;
77798;SDS011;66989;50.426;15.352;2024-02-23T01:16:37;3.65;;;1.05;;
77798;SDS011;66989;50.426;15.352;2024-02-23T01:19:02;2.58;;;0.90;;
77798;SDS011;66989;50.426;15.352;2024-02-23T01:21:28;2.08;;;1.08;;
77798;SDS011;66989;50.426;15.352;2024-02-23T01:23:53;4.85;;;1.30;;
77798;SDS011;66989;50.426;15.352;2024-02-23T01:26:19;2.00;;;0.98;;
77798;SDS011;66989;50.426;15.352;2024-02-23T01:28:44;2.17;;;1.17;;
77798;SDS011;66989;50.426;15.352;2024-02-23T01:31:11;2.42;;;1.52;;
77798;SDS011;66989;50.426;15.352;2024-02-23T01:33:37;1.80;;;0.93;;
77798;SDS011;66989;50.426;15.352;2024-02-23T01:36:04;3.05;;;1.60;;
77798;SDS011;66989;50.426;15.352;2024-02-23T01:38:30;3.15;;;0.95;;
77798;SDS011;66989;50.426;15.352;2024-02-23T01:40:57;2.72;;;1.50;;
77798;SDS011;66989;50.426;15.352;2024-02-23T01:43:26;2.70;;;1.92;;
77798;SDS011;66989;50.426;15.352;2024-02-23T01:45:51;2.58;;;1.20;;
77798;SDS011;66989;50.426;15.352;2024-02-23T01:48:17;2.92;;;0.85;;
77798;SDS011;66989;50.426;15.352;2024-02-23T01:50:43;1.77;;;0.98;;
77798;SDS011;66989;50.426;15.352;2024-02-23T01:53:09;2.20;;;0.93;;
77798;SDS011;66989;50.426;15.352;2024-02-23T01:55:37;2.15;;;0.95;;
77798;SDS011;66989;50.426;15.352;2024-02-23T01:58:09;2.40;;;0.82;;
77798;SDS011;66989;50.426;15.352;2024-02-23T02:00:35;2.92;;;0.98;;
77798;SDS011;66989;50.426;15.352;2024-02-23T02:03:01;2.63;;;1.77;;
77798;SDS011;66989;50.426;15.352;2024-02-23T02:05:27;2.90;;;1.25;;
77798;SDS011;66989;50.426;15.352;2024-02-23T02:07:53;2.72;;;1.02;;
77798;SDS011;66989;50.426;15.352;2024-02-23T02:10:24;2.85;;;1.33;;
77798;SDS011;66989;50.426;15.352;2024-02-23T02:12:50;3.13;;;1.58;;
77798;SDS011;66989;50.426;15.352;2024-02-23T02:15:15;3.92;;;1.75;;
77798;SDS011;66989;50.426;15.352;2024-02-23T02:17:41;2.45;;;1.52;;
77798;SDS011;66989;50.426;15.352;2024-02-23T02:20:07;4.18;;;2.63;;
77798;SDS011;66989;50.426;15.352;2024-02-23T02:22:37;3.83;;;1.67;;
77798;SDS011;66989;50.426;15.352;2024-02-23T02:25:02;4.85;;;3.10;;
77798;SDS011;66989;50.426;15.352;2024-02-23T02:27:28;3.70;;;2.08;;
77798;SDS011;66989;50.426;15.352;2024-02-23T02:29:53;5.57;;;2.90;;
77798;SDS011;66989;50.426;15.352;2024-02-23T02:32:19;5.22;;;3.38;;
77798;SDS011;66989;50.426;15.352;2024-02-23T02:34:44;3.70;;;1.87;;
77798;SDS011;66989;50.426;15.352;2024-02-23T02:37:09;6.80;;;2.23;;
77798;SDS011;66989;50.426;15.352;2024-02-23T02:39:35;4.43;;;3.60;;
77798;SDS011;66989;50.426;15.352;2024-02-23T02:42:01;4.75;;;2.83;;
77798;SDS011;66989;50.426;15.352;2024-02-23T02:44:26;5.28;;;3.58;;
77798;SDS011;66989;50.426;15.352;2024-02-23T02:46:55;4.70;;;2.88;;
77798;SDS011;66989;50.426;15.352;2024-02-23T02:49:21;5.35;;;3.40;;
77798;SDS011;66989;50.426;15.352;2024-02-23T02:51:46;6.30;;;3.85;;
77798;SDS011;66989;50.426;15.352;2024-02-23T02:54:11;6.23;;;3.40;;
77798;SDS011;66989;50.426;15.352;2024-02-23T02:56:41;7.25;;;4.38;;
77798;SDS011;66989;50.426;15.352;2024-02-23T02:59:11;4.75;;;2.67;;
77798;SDS011;66989;50.426;15.352;2024-02-23T03:01:37;6.47;;;3.20;;
77798;SDS011;66989;50.426;15.352;2024-02-23T03:04:02;5.72;;;3.50;;
77798;SDS011;66989;50.426;15.352;2024-02-23T03:06:27;6.93;;;3.27;;
77798;SDS011;66989;50.426;15.352;2024-02-23T03:08:53;4.03;;;2.33;;
77798;SDS011;66989;50.426;15.352;2024-02-23T03:11:18;6.40;;;3.38;;
77798;SDS011;66989;50.426;15.352;2024-02-23T03:13:43;6.05;;;4.20;;
77798;SDS011;66989;50.426;15.352;2024-02-23T03:16:16;6.57;;;3.05;;
77798;SDS011;66989;50.426;15.352;2024-02-23T03:18:45;5.43;;;3.75;;
77798;SDS011;66989;50.426;15.352;2024-02-23T03:21:11;5.25;;;2.97;;
77798;SDS011;66989;50.426;15.352;2024-02-23T03:23:39;4.35;;;2.92;;
77798;SDS011;66989;50.426;15.352;2024-02-23T03:26:06;3.85;;;2.40;;
77798;SDS011;66989;50.426;15.352;2024-02-23T03:28:32;5.45;;;2.90;;
77798;SDS011;66989;50.426;15.352;2024-02-23T03:30:57;4.82;;;3.30;;
77798;SDS011;66989;50.426;15.352;2024-02-23T03:33:22;6.07;;;2.67;;
77798;SDS011;66989;50.426;15.352;2024-02-23T03:35:48;4.88;;;2.08;;
77798;SDS011;66989;50.426;15.352;2024-02-23T03:38:13;5.43;;;3.03;;
77798;SDS011;66989;50.426;15.352;2024-02-23T03:40:39;3.88;;;2.70;;
77798;SDS011;66989;50.426;15.352;2024-02-23T03:43:04;3.47;;;1.60;;
77798;SDS011;66989;50.426;15.352;2024-02-23T03:45:30;3.17;;;1.83;;
77798;SDS011;66989;50.426;15.352;2024-02-23T03:47:56;3.67;;;1.10;;
77798;SDS011;66989;50.426;15.352;2024-02-23T03:50:21;3.05;;;0.95;;
77798;SDS011;66989;50.426;15.352;2024-02-23T03:52:47;3.38;;;1.67;;
77798;SDS011;66989;50.426;15.352;2024-02-23T03:55:12;3.20;;;1.27;;
77798;SDS011;66989;50.426;15.352;2024-02-23T03:57:37;1.90;;;1.23;;
77798;SDS011;66989;50.426;15.352;2024-02-23T04:00:03;1.75;;;1.08;;
77798;SDS011;66989;50.426;15.352;2024-02-23T04:02:29;2.47;;;1.23;;
77798;SDS011;66989;50.426;15.352;2024-02-23T04:04:54;1.50;;;0.80;;
77798;SDS011;66989;50.426;15.352;2024-02-23T04:07:20;4.93;;;1.35;;
77798;SDS011;66989;50.426;15.352;2024-02-23T04:09:45;1.52;;;0.63;;
77798;SDS011;66989;50.426;15.352;2024-02-23T04:12:17;2.75;;;1.05;;
77798;SDS011;66989;50.426;15.352;2024-02-23T04:14:45;0.55;;;0.20;;
77798;SDS011;66989;50.426;15.352;2024-02-23T04:17:11;1.50;;;0.38;;
77798;SDS011;66989;50.426;15.352;2024-02-23T04:19:37;1.77;;;0.73;;
77798;SDS011;66989;50.426;15.352;2024-02-23T04:22:02;0.90;;;0.10;;
77798;SDS011;66989;50.426;15.352;2024-02-23T04:24:28;0.80;;;0.52;;
77798;SDS011;66989;50.426;15.352;2024-02-23T04:26:53;0.70;;;0.57;;
77798;SDS011;66989;50.426;15.352;2024-02-23T04:29:19;0.65;;;0.25;;
77798;SDS011;66989;50.426;15.352;2024-02-23T04:31:44;0.30;;;0.10;;
77798;SDS011;66989;50.426;15.352;2024-02-23T04:34:09;1.10;;;0.75;;
77798;SDS011;66989;50.426;15.352;2024-02-23T04:36:35;1.42;;;0.20;;
77798;SDS011;66989;50.426;15.352;2024-02-23T04:39:00;0.95;;;0.60;;
77798;SDS011;66989;50.426;15.352;2024-02-23T04:41:25;0.50;;;0.13;;
77798;SDS011;66989;50.426;15.352;2024-02-23T04:43:51;0.50;;;0.00;;
77798;SDS011;66989;50.426;15.352;2024-02-23T04:46:17;0.43;;;0.30;;
77798;SDS011;66989;50.426;15.352;2024-02-23T04:48:42;0.57;;;0.10;;
77798;SDS011;66989;50.426;15.352;2024-02-23T04:51:07;0.70;;;0.22;;
77798;SDS011;66989;50.426;15.352;2024-02-23T04:53:38;0.80;;;0.00;;
77798;SDS011;66989;50.426;15.352;2024-02-23T04:56:04;0.80;;;0.55;;
77798;SDS011;66989;50.426;15.352;2024-02-23T04:58:30;0.22;;;0.13;;
77798;SDS011;66989;50.426;15.352;2024-02-23T05:00:55;1.83;;;0.52;;
77798;SDS011;66989;50.426;15.352;2024-02-23T05:03:21;2.13;;;0.13;;
77798;SDS011;66989;50.426;15.352;2024-02-23T05:05:46;0.70;;;0.20;;
77798;SDS011;66989;50.426;15.352;2024-02-23T05:08:11;0.73;;;0.10;;
77798;SDS011;66989;50.426;15.352;2024-02-23T05:10:37;2.90;;;0.10;;
77798;SDS011;66989;50.426;15.352;2024-02-23T05:13:02;0.68;;;0.30;;
77798;SDS011;66989;50.426;15.352;2024-02-23T05:15:28;0.55;;;0.55;;
77798;SDS011;66989;50.426;15.352;2024-02-23T05:17:53;1.13;;;0.20;;
77798;SDS011;66989;50.426;15.352;2024-02-23T05:20:18;3.63;;;0.20;;
77798;SDS011;66989;50.426;15.352;2024-02-23T05:22:44;1.33;;;0.57;;
77798;SDS011;66989;50.426;15.352;2024-02-23T05:25:09;1.77;;;0.43;;
77798;SDS011;66989;50.426;15.352;2024-02-23T05:27:34;1.33;;;0.52;;
77798;SDS011;66989;50.426;15.352;2024-02-23T05:30:00;1.95;;;0.45;;
77798;SDS011;66989;50.426;15.352;2024-02-23T05:32:26;0.63;;;0.10;;
77798;SDS011;66989;50.426;15.352;2024-02-23T05:34:51;1.93;;;0.60;;
77798;SDS011;66989;50.426;15.352;2024-02-23T05:37:18;0.82;;;0.35;;
77798;SDS011;66989;50.426;15.352;2024-02-23T05:39:43;0.63;;;0.08;;
77798;SDS011;66989;50.426;15.352;2024-02-23T05:42:10;0.68;;;0.47;;
77798;SDS011;66989;50.426;15.352;2024-02-23T05:44:36;1.33;;;0.08;;
77798;SDS011;66989;50.426;15.352;2024-02-23T05:47:02;0.57;;;0.20;;
77798;SDS011;66989;50.426;15.352;2024-02-23T05:49:27;1.08;;;0.45;;
77798;SDS011;66989;50.426;15.352;2024-02-23T05:51:53;0.88;;;0.55;;
77798;SDS011;66989;50.426;15.352;2024-02-23T05:54:18;0.47;;;0.15;;
77798;SDS011;66989;50.426;15.352;2024-02-23T05:56:44;0.40;;;0.25;;
77798;SDS011;66989;50.426;15.352;2024-02-23T05:59:10;0.98;;;0.35;;
77798;SDS011;66989;50.426;15.352;2024-02-23T06:01:36;0.98;;;0.32;;
77798;SDS011;66989;50.426;15.352;2024-02-23T06:04:01;0.95;;;0.30;;
77798;SDS011;66989;50.426;15.352;2024-02-23T06:06:27;0.88;;;0.57;;
77798;SDS011;66989;50.426;15.352;2024-02-23T06:08:53;1.00;;;0.63;;
77798;SDS011;66989;50.426;15.352;2024-02-23T06:11:18;0.47;;;0.10;;
77798;SDS011;66989;50.426;15.352;2024-02-23T06:13:44;0.68;;;0.20;;
77798;SDS011;66989;50.426;15.352;2024-02-23T06:16:09;0.52;;;0.15;;
77798;SDS011;66989;50.426;15.352;2024-02-23T06:18:36;1.25;;;0.90;;
77798;SDS011;66989;50.426;15.352;2024-02-23T06:21:10;0.70;;;0.70;;
77798;SDS011;66989;50.426;15.352;2024-02-23T06:23:36;1.05;;;0.32;;
77798;SDS011;66989;50.426;15.352;2024-02-23T06:26:02;2.70;;;0.80;;
77798;SDS011;66989;50.426;15.352;2024-02-23T06:28:27;1.15;;;0.40;;
77798;SDS011;66989;50.426;15.352;2024-02-23T06:30:52;1.48;;;0.52;;
77798;SDS011;66989;50.426;15.352;2024-02-23T06:33:18;0.98;;;0.40;;
77798;SDS011;66989;50.426;15.352;2024-02-23T06:35:44;0.43;;;0.20;;
77798;SDS011;66989;50.426;15.352;2024-02-23T06:38:09;0.82;;;0.32;;
77798;SDS011;66989;50.426;15.352;2024-02-23T06:40:35;0.20;;;0.10;;
77798;SDS011;66989;50.426;15.352;2024-02-23T06:43:00;0.88;;;0.22;;
77798;SDS011;66989;50.426;15.352;2024-02-23T06:45:25;0.83;;;0.40;;
77798;SDS011;66989;50.426;15.352;2024-02-23T06:47:51;0.28;;;0.17;;
77798;SDS011;66989;50.426;15.352;2024-02-23T06:50:16;1.80;;;0.38;;
77798;SDS011;66989;50.426;15.352;2024-02-23T06:52:41;0.52;;;0.20;;
77798;SDS011;66989;50.426;15.352;2024-02-23T06:55:07;0.40;;;0.10;;
77798;SDS011;66989;50.426;15.352;2024-02-23T06:57:35;0.38;;;0.32;;
77798;SDS011;66989;50.426;15.352;2024-02-23T07:00:01;1.15;;;0.20;;
77798;SDS011;66989;50.426;15.352;2024-02-23T07:02:27;1.45;;;0.17;;
77798;SDS011;66989;50.426;15.352;2024-02-23T07:04:56;1.23;;;0.40;;
77798;SDS011;66989;50.426;15.352;2024-02-23T07:07:23;0.73;;;0.10;;
77798;SDS011;66989;50.426;15.352;2024-02-23T07:09:49;0.70;;;0.00;;
77798;SDS011;66989;50.426;15.352;2024-02-23T07:12:15;1.10;;;0.15;;
77798;SDS011;66989;50.426;15.352;2024-02-23T07:14:40;2.30;;;0.38;;
77798;SDS011;66989;50.426;15.352;2024-02-23T07:17:06;3.13;;;0.60;;
77798;SDS011;66989;50.426;15.352;2024-02-23T07:24:23;1.50;;;0.10;;
77798;SDS011;66989;50.426;15.352;2024-02-23T07:26:48;0.70;;;0.30;;
77798;SDS011;66989;50.426;15.352;2024-02-23T07:29:14;0.90;;;0.20;;
77798;SDS011;66989;50.426;15.352;2024-02-23T07:31:39;1.90;;;0.10;;
77798;SDS011;66989;50.426;15.352;2024-02-23T07:34:04;0.70;;;0.10;;
77798;SDS011;66989;50.426;15.352;2024-02-23T07:36:30;2.92;;;1.05;;
77798;SDS011;66989;50.426;15.352;2024-02-23T07:38:55;1.20;;;0.20;;
77798;SDS011;66989;50.426;15.352;2024-02-23T07:41:21;0.38;;;0.30;;
77798;SDS011;66989;50.426;15.352;2024-02-23T07:43:46;2.05;;;0.10;;
77798;SDS011;66989;50.426;15.352;2024-02-23T07:46:12;1.67;;;0.52;;
77798;SDS011;66989;50.426;15.352;2024-02-23T07:48:38;3.50;;;1.65;;
77798;SDS011;66989;50.426;15.352;2024-02-23T07:51:04;1.38;;;0.20;;
77798;SDS011;66989;50.426;15.352;2024-02-23T07:53:30;1.48;;;0.50;;
77798;SDS011;66989;50.426;15.352;2024-02-23T07:55:56;2.03;;;0.35;;
77798;SDS011;66989;50.426;15.352;2024-02-23T07:58:27;1.83;;;0.52;;
77798;SDS011;66989;50.426;15.352;2024-02-23T08:00:52;1.60;;;0.52;;
77798;SDS011;66989;50.426;15.352;2024-02-23T08:03:18;2.72;;;0.52;;
77798;SDS011;66989;50.426;15.352;2024-02-23T08:05:44;2.30;;;0.40;;
77798;SDS011;66989;50.426;15.352;2024-02-23T08:08:09;0.90;;;0.30;;
77798;SDS011;66989;50.426;15.352;2024-02-23T08:10:34;0.95;;;0.50;;
77798;SDS011;66989;50.426;15.352;2024-02-23T08:13:00;1.55;;;0.40;;
77798;SDS011;66989;50.426;15.352;2024-02-23T08:15:25;2.40;;;0.30;;
77798;SDS011;66989;50.426;15.352;2024-02-23T08:17:51;1.60;;;0.75;;
77798;SDS011;66989;50.426;15.352;2024-02-23T08:20:16;1.63;;;0.50;;
77798;SDS011;66989;50.426;15.352;2024-02-23T08:22:42;4.07;;;0.50;;
77798;SDS011;66989;50.426;15.352;2024-02-23T08:25:08;0.73;;;0.50;;
77798;SDS011;66989;50.426;15.352;2024-02-23T08:27:33;2.53;;;0.80;;
77798;SDS011;66989;50.426;15.352;2024-02-23T08:29:59;1.90;;;0.30;;
77798;SDS011;66989;50.426;15.352;2024-02-23T08:32:24;2.60;;;0.43;;
77798;SDS011;66989;50.426;15.352;2024-02-23T08:34:50;2.13;;;0.20;;
77798;SDS011;66989;50.426;15.352;2024-02-23T08:37:17;2.03;;;0.50;;
77798;SDS011;66989;50.426;15.352;2024-02-23T08:39:43;0.30;;;0.10;;
77798;SDS011;66989;50.426;15.352;2024-02-23T08:42:09;1.00;;;0.22;;
77798;SDS011;66989;50.426;15.352;2024-02-23T08:44:34;0.73;;;0.10;;
77798;SDS011;66989;50.426;15.352;2024-02-23T08:47:00;0.60;;;0.00;;
77798;SDS011;66989;50.426;15.352;2024-02-23T08:49:27;0.70;;;0.35;;
77798;SDS011;66989;50.426;15.352;2024-02-23T08:51:52;0.57;;;0.40;;
77798;SDS011;66989;50.426;15.352;2024-02-23T08:54:17;1.55;;;0.38;;
77798;SDS011;66989;50.426;15.352;2024-02-23T08:56:43;2.25;;;0.55;;
77798;SDS011;66989;50.426;15.352;2024-02-23T08:59:08;0.65;;;0.25;;
77798;SDS011;66989;50.426;15.352;2024-02-23T09:01:35;4.70;;;0.70;;
77798;SDS011;66989;50.426;15.352;2024-02-23T09:04:00;2.60;;;0.63;;
77798;SDS011;66989;50.426;15.352;2024-02-23T09:06:26;3.30;;;0.70;;
77798;SDS011;66989;50.426;15.352;2024-02-23T09:08:52;5.80;;;2.20;;
77798;SDS011;66989;50.426;15.352;2024-02-23T09:11:17;1.27;;;0.20;;
77798;SDS011;66989;50.426;15.352;2024-02-23T09:13:42;2.60;;;0.50;;
77798;SDS011;66989;50.426;15.352;2024-02-23T09:16:08;3.60;;;0.85;;
77798;SDS011;66989;50.426;15.352;2024-02-23T09:18:34;2.28;;;0.90;;
77798;SDS011;66989;50.426;15.352;2024-02-23T09:21:00;0.73;;;0.35;;
77798;SDS011;66989;50.426;15.352;2024-02-23T09:23:25;0.98;;;0.10;;
77798;SDS011;66989;50.426;15.352;2024-02-23T09:25:51;2.03;;;0.52;;
77798;SDS011;66989;50.426;15.352;2024-02-23T09:28:16;1.92;;;0.40;;
77798;SDS011;66989;50.426;15.352;2024-02-23T09:30:42;3.90;;;1.25;;
77798;SDS011;66989;50.426;15.352;2024-02-23T09:33:07;4.25;;;1.10;;
77798;SDS011;66989;50.426;15.352;2024-02-23T09:35:33;2.42;;;0.50;;
77798;SDS011;66989;50.426;15.352;2024-02-23T09:37:58;2.25;;;0.98;;
77798;SDS011;66989;50.426;15.352;2024-02-23T09:40:24;3.53;;;1.02;;
77798;SDS011;66989;50.426;15.352;2024-02-23T09:42:58;2.15;;;0.55;;
77798;SDS011;66989;50.426;15.352;2024-02-23T09:45:25;1.20;;;0.32;;
77798;SDS011;66989;50.426;15.352;2024-02-23T09:47:52;2.10;;;0.38;;
77798;SDS011;66989;50.426;15.352;2024-02-23T09:50:20;2.03;;;0.60;;
77798;SDS011;66989;50.426;15.352;2024-02-23T09:52:50;1.35;;;0.68;;
77798;SDS011;66989;50.426;15.352;2024-02-23T09:55:20;1.95;;;0.20;;
77798;SDS011;66989;50.426;15.352;2024-02-23T09:57:47;1.65;;;0.68;;
77798;SDS011;66989;50.426;15.352;2024-02-23T10:00:15;1.13;;;0.38;;
77798;SDS011;66989;50.426;15.352;2024-02-23T10:02:42;2.75;;;0.93;;
77798;SDS011;66989;50.426;15.352;2024-02-23T10:05:08;1.70;;;0.57;;
77798;SDS011;66989;50.426;15.352;2024-02-23T10:07:37;1.85;;;0.47;;
77798;SDS011;66989;50.426;15.352;2024-02-23T10:10:02;6.07;;;0.55;;
77798;SDS011;66989;50.426;15.352;2024-02-23T10:12:32;2.22;;;0.50;;
77798;SDS011;66989;50.426;15.352;2024-02-23T10:14:58;1.67;;;0.60;;
77798;SDS011;66989;50.426;15.352;2024-02-23T10:17:24;1.00;;;0.35;;
77798;SDS011;66989;50.426;15.352;2024-02-23T10:19:49;1.40;;;0.40;;
77798;SDS011;66989;50.426;15.352;2024-02-23T10:22:14;2.57;;;0.30;;
77798;SDS011;66989;50.426;15.352;2024-02-23T10:24:41;2.95;;;0.73;;
77798;SDS011;66989;50.426;15.352;2024-02-23T10:27:07;2.92;;;0.95;;
77798;SDS011;66989;50.426;15.352;2024-02-23T10:29:32;2.75;;;0.80;;
77798;SDS011;66989;50.426;15.352;2024-02-23T10:31:58;2.15;;;0.50;;
77798;SDS011;66989;50.426;15.352;2024-02-23T10:34:24;2.72;;;0.30;;
77798;SDS011;66989;50.426;15.352;2024-02-23T10:36:51;3.28;;;1.35;;
77798;SDS011;66989;50.426;15.352;2024-02-23T10:39:19;2.60;;;0.45;;
77798;SDS011;66989;50.426;15.352;2024-02-23T10:41:46;3.10;;;0.55;;
77798;SDS011;66989;50.426;15.352;2024-02-23T10:44:16;5.18;;;0.57;;
77798;SDS011;66989;50.426;15.352;2024-02-23T10:46:43;0.98;;;0.65;;
77798;SDS011;66989;50.426;15.352;2024-02-23T10:49:10;2.72;;;0.70;;
77798;SDS011;66989;50.426;15.352;2024-02-23T10:51:38;3.30;;;0.20;;
77798;SDS011;66989;50.426;15.352;2024-02-23T10:54:05;1.20;;;0.30;;
77798;SDS011;66989;50.426;15.352;2024-02-23T10:56:31;1.13;;;0.32;;
77798;SDS011;66989;50.426;15.352;2024-02-23T10:58:57;2.55;;;0.82;;
77798;SDS011;66989;50.426;15.352;2024-02-23T11:01:22;2.35;;;0.32;;
77798;SDS011;66989;50.426;15.352;2024-02-23T11:03:49;1.58;;;1.00;;
77798;SDS011;66989;50.426;15.352;2024-02-23T11:06:17;1.92;;;0.82;;
77798;SDS011;66989;50.426;15.352;2024-02-23T11:08:46;1.90;;;0.82;;
77798;SDS011;66989;50.426;15.352;2024-02-23T11:11:15;2.00;;;0.25;;
77798;SDS011;66989;50.426;15.352;2024-02-23T11:13:42;1.63;;;0.52;;
77798;SDS011;66989;50.426;15.352;2024-02-23T11:16:08;2.75;;;0.60;;
77798;SDS011;66989;50.426;15.352;2024-02-23T11:18:35;1.30;;;0.40;;
77798;SDS011;66989;50.426;15.352;2024-02-23T11:21:02;1.83;;;1.13;;
77798;SDS011;66989;50.426;15.352;2024-02-23T11:23:47;2.30;;;0.43;;
77798;SDS011;66989;50.426;15.352;2024-02-23T11:26:14;2.42;;;0.95;;
77798;SDS011;66989;50.426;15.352;2024-02-23T11:31:15;1.83;;;0.30;;
77798;SDS011;66989;50.426;15.352;2024-02-23T11:36:28;2.03;;;0.75;;
77798;SDS011;66989;50.426;15.352;2024-02-23T11:38:56;2.50;;;0.73;;
77798;SDS011;66989;50.426;15.352;2024-02-23T11:41:23;1.10;;;0.35;;
77798;SDS011;66989;50.426;15.352;2024-02-23T11:43:49;0.80;;;0.13;;
77798;SDS011;66989;50.426;15.352;2024-02-23T11:46:16;2.00;;;0.57;;
77798;SDS011;66989;50.426;15.352;2024-02-23T11:48:42;1.90;;;1.05;;
77798;SDS011;66989;50.426;15.352;2024-02-23T11:51:08;3.45;;;1.17;;
77798;SDS011;66989;50.426;15.352;2024-02-23T11:53:40;1.88;;;0.52;;
77798;SDS011;66989;50.426;15.352;2024-02-23T11:56:06;2.00;;;0.77;;
77798;SDS011;66989;50.426;15.352;2024-02-23T11:58:32;1.13;;;0.47;;
77798;SDS011;66989;50.426;15.352;2024-02-23T12:00:58;1.75;;;0.75;;
77798;SDS011;66989;50.426;15.352;2024-02-23T12:03:27;1.55;;;0.40;;
77798;SDS011;66989;50.426;15.352;2024-02-23T12:05:52;0.65;;;0.25;;
77798;SDS011;66989;50.426;15.352;2024-02-23T12:08:18;0.98;;;0.47;;
77798;SDS011;66989;50.426;15.352;2024-02-23T12:10:44;2.63;;;0.93;;
77798;SDS011;66989;50.426;15.352;2024-02-23T12:13:10;1.10;;;0.52;;
77798;SDS011;66989;50.426;15.352;2024-02-23T12:15:35;2.53;;;0.77;;
77798;SDS011;66989;50.426;15.352;2024-02-23T12:18:00;1.17;;;0.28;;
77798;SDS011;66989;50.426;15.352;2024-02-23T12:20:28;3.42;;;0.65;;
77798;SDS011;66989;50.426;15.352;2024-02-23T12:22:57;1.05;;;0.35;;
77798;SDS011;66989;50.426;15.352;2024-02-23T12:25:25;1.85;;;0.73;;
77798;SDS011;66989;50.426;15.352;2024-02-23T12:27:57;2.60;;;0.98;;
77798;SDS011;66989;50.426;15.352;2024-02-23T12:30:23;2.60;;;0.45;;
77798;SDS011;66989;50.426;15.352;2024-02-23T12:32:48;2.45;;;0.65;;
77798;SDS011;66989;50.426;15.352;2024-02-23T12:35:14;1.85;;;0.52;;
77798;SDS011;66989;50.426;15.352;2024-02-23T12:37:39;1.70;;;0.38;;
77798;SDS011;66989;50.426;15.352;2024-02-23T12:42:34;2.83;;;0.95;;
77798;SDS011;66989;50.426;15.352;2024-02-23T12:45:00;0.88;;;0.45;;
77798;SDS011;66989;50.426;15.352;2024-02-23T12:47:25;0.88;;;0.43;;
77798;SDS011;66989;50.426;15.352;2024-02-23T12:49:51;1.70;;;0.27;;
77798;SDS011;66989;50.426;15.352;2024-02-23T12:52:16;1.03;;;0.47;;
77798;SDS011;66989;50.426;15.352;2024-02-23T12:54:41;1.63;;;0.65;;
77798;SDS011;66989;50.426;15.352;2024-02-23T12:57:07;1.50;;;0.38;;
77798;SDS011;66989;50.426;15.352;2024-02-23T12:59:32;2.70;;;0.50;;
77798;SDS011;66989;50.426;15.352;2024-02-23T13:01:58;1.17;;;0.60;;
77798;SDS011;66989;50.426;15.352;2024-02-23T13:04:23;2.30;;;0.38;;
77798;SDS011;66989;50.426;15.352;2024-02-23T13:06:48;2.38;;;0.57;;
77798;SDS011;66989;50.426;15.352;2024-02-23T13:09:14;1.10;;;0.52;;
77798;SDS011;66989;50.426;15.352;2024-02-23T13:11:39;1.23;;;0.55;;
77798;SDS011;66989;50.426;15.352;2024-02-23T13:14:05;2.13;;;0.88;;
77798;SDS011;66989;50.426;15.352;2024-02-23T13:16:30;2.63;;;0.77;;
77798;SDS011;66989;50.426;15.352;2024-02-23T13:18:55;1.50;;;0.93;;
77798;SDS011;66989;50.426;15.352;2024-02-23T13:21:21;2.22;;;0.68;;
77798;SDS011;66989;50.426;15.352;2024-02-23T13:23:46;2.85;;;1.23;;
77798;SDS011;66989;50.426;15.352;2024-02-23T13:26:12;2.95;;;0.77;;
77798;SDS011;66989;50.426;15.352;2024-02-23T13:28:39;1.80;;;0.57;;
77798;SDS011;66989;50.426;15.352;2024-02-23T13:31:08;2.30;;;0.30;;
77798;SDS011;66989;50.426;15.352;2024-02-23T13:33:34;1.60;;;0.32;;
77798;SDS011;66989;50.426;15.352;2024-02-23T13:35:59;2.10;;;1.05;;
77798;SDS011;66989;50.426;15.352;2024-02-23T13:38:24;6.88;;;0.60;;
77798;SDS011;66989;50.426;15.352;2024-02-23T13:40:50;1.77;;;0.75;;
77798;SDS011;66989;50.426;15.352;2024-02-23T13:43:15;3.40;;;0.35;;
77798;SDS011;66989;50.426;15.352;2024-02-23T13:45:48;2.33;;;0.73;;
77798;SDS011;66989;50.426;15.352;2024-02-23T13:48:16;1.88;;;0.10;;
77798;SDS011;66989;50.426;15.352;2024-02-23T13:50:43;0.65;;;0.43;;
77798;SDS011;66989;50.426;15.352;2024-02-23T13:53:09;0.55;;;0.22;;
77798;SDS011;66989;50.426;15.352;2024-02-23T13:55:34;1.58;;;0.68;;
77798;SDS011;66989;50.426;15.352;2024-02-23T13:57:59;2.73;;;0.77;;
77798;SDS011;66989;50.426;15.352;2024-02-23T14:00:25;1.58;;;0.60;;
77798;SDS011;66989;50.426;15.352;2024-02-23T14:02:52;1.10;;;0.20;;
77798;SDS011;66989;50.426;15.352;2024-02-23T14:05:18;1.40;;;0.80;;
77798;SDS011;66989;50.426;15.352;2024-02-23T14:07:44;0.68;;;0.25;;
77798;SDS011;66989;50.426;15.352;2024-02-23T14:10:09;1.65;;;0.35;;
77798;SDS011;66989;50.426;15.352;2024-02-23T14:12:35;1.17;;;0.75;;
77798;SDS011;66989;50.426;15.352;2024-02-23T14:15:00;1.27;;;0.55;;
77798;SDS011;66989;50.426;15.352;2024-02-23T14:17:26;0.85;;;0.35;;
77798;SDS011;66989;50.426;15.352;2024-02-23T14:19:51;0.75;;;0.30;;
77798;SDS011;66989;50.426;15.352;2024-02-23T14:22:17;1.67;;;0.70;;
77798;SDS011;66989;50.426;15.352;2024-02-23T14:24:44;2.00;;;1.08;;
77798;SDS011;66989;50.426;15.352;2024-02-23T14:29:34;2.03;;;0.37;;
77798;SDS011;66989;50.426;15.352;2024-02-23T14:32:00;1.38;;;0.17;;
77798;SDS011;66989;50.426;15.352;2024-02-23T14:34:26;3.35;;;0.88;;
77798;SDS011;66989;50.426;15.352;2024-02-23T14:39:18;4.50;;;0.37;;
77798;SDS011;66989;50.426;15.352;2024-02-23T14:41:43;2.40;;;0.68;;
77798;SDS011;66989;50.426;15.352;2024-02-23T14:44:08;2.92;;;1.80;;